Nearby METAR Reports

 

KORH - Worcester, Massachusetts, USA
Distance from station: NW 4mi, 7km
Updated: Mon, 25-Sep-2017 10:54am EDT
Clear
Clear
 Wind from varies
Wind: varies 3 mph , 6 km/h
Temperature: 79°F , 26°C
Dew Point: 66°F , 19°C
Humidity: 65%
Barometer: 30.13 inHg , 1020.3 hPa
Clouds: Clear
Visibility: 10 miles , 16 km
2017/09/25 14:54 KORH 251454Z VRB03KT 10SM CLR 26/19 A3013 RMK AO2 SLP197 T02610189 50006
KBOS - Boston, Massachusetts, USA
Distance from station: ENE 42mi, 68km
Updated: Mon, 25-Sep-2017 10:54am EDT
Clear
Clear
 Wind from varies
Wind: varies 5 mph , 7 km/h
Temperature: 79°F , 26°C
Dew Point: 66°F , 19°C
Humidity: 65%
Barometer: 30.09 inHg , 1019 hPa
Clouds: Clear
Visibility: 10 miles , 16 km
2017/09/25 14:54 KBOS 251454Z VRB04KT 10SM CLR 26/19 A3009 RMK AO2 SLP188 T02560189 50004
 
KCQX - Chatham, Massachusetts, USA
Distance from station: SE 102mi, 164km
Updated: Mon, 25-Sep-2017 10:52am EDT
Overcast
Overcast
 Wind from E
Wind: E 3 mph , 6 km/h
Temperature: 70°F , 21°C
Dew Point: 66°F , 19°C
Humidity: 88%
Barometer: 30.10 inHg , 1019.3 hPa
Clouds: Overcast
Visibility: 10 miles , 16 km
Cloud details: Overcast 300 ft
2017/09/25 14:52 KCQX 251452Z AUTO 09003KT 10SM OVC003 21/19 A3010 RMK AO2 SLP193 T02060194 50004
KMVY - Marthas Vineyard, Massachusetts, USA
Distance from station: SE 84mi, 135km
Updated: Mon, 25-Sep-2017 10:53am EDT
Mostly cloudy
Mostly cloudy
 Wind from NE
Wind: NE 6 mph , 9 km/h
Temperature: 73°F , 23°C
Dew Point: 68°F , 20°C
Humidity: 83%
Barometer: 30.08 inHg , 1018.6 hPa
Clouds: Mostly cloudy
Visibility: 10 miles , 16 km
Cloud details: Mostly cloudy 500 ft
2017/09/25 14:53 KMVY 251453Z 05005KT 10SM BKN005 23/20 A3008 RMK AO2 SLP186 T02280200 50003
 
KPVC - Provincetown, Massachusetts, USA
Distance from station: NNW 85mi, 136km
Updated: Mon, 25-Sep-2017 10:56am EDT
Clear
Clear
 Wind from NE
Wind: NE 8 mph , 13 km/h
Temperature: 75°F , 24°C
Dew Point: 66°F , 19°C
Humidity: 74%
Barometer: 30.09 inHg , 1019 hPa
Clouds: Clear
Visibility: 10 miles , 16 km
2017/09/25 14:56 KPVC 251456Z AUTO 04007KT 10SM CLR 24/19 A3009 RMK AO2 SLP189 T02440194 50001
KAQW - Savoy, Massachusetts, USA
Distance from station: NNW 66mi, 106km
Updated: Mon, 25-Sep-2017 10:52am EDT
Clear
Clear
 
Barometer: 30.11 inHg , 1019.6 hPa
Clouds: Clear
2017/09/25 14:52 KAQW 251452Z AUTO CLR A3011 RMK AO2 SLPNO 6//// 56004 PWINO FZRANO PNO $
 
KIZG - Fryeburg, Maine, USA
Distance from station: NNE 133mi, 214km
Updated: Mon, 25-Sep-2017 10:54am EDT
Clear
Clear
 Wind from E
Wind: E 3 mph , 6 km/h
Temperature: 81°F , 27°C
Heat Index: 85°F , 29°C
Dew Point: 72°F , 22°C
Humidity: 74%
Barometer: 30.11 inHg , 1019.6 hPa
Clouds: Clear
Visibility: 10 miles , 16 km
2017/09/25 14:54 KIZG 251454Z AUTO 09003KT 10SM CLR 27/22 A3011 RMK AO2 SLP196 T02720217 50000
KMWN - Mt Washington, New Hampshire, USA
Distance from station: NNE 146mi, 234km
Updated: Mon, 25-Sep-2017 9:50am EDT

 Wind from NNE
Wind: NNE 5 mph , 7 km/h
Visibility: 25 miles , 40 km
2017/09/25 13:50 KMWN 251350Z 02004KT 25SM BKN/// SCT005 14/13 RMK VIS E-SW 1 BBLO BKN N-SW LIMITING VIS E-SW
 
KBML - Berlin, New Hampshire, USA
Distance from station: NNE 160mi, 257km
Updated: Mon, 25-Sep-2017 10:52am EDT
Clear
Clear
 Wind from calm
Wind: Calm
Temperature: 79°F , 26°C
Dew Point: 66°F , 19°C
Humidity: 65%
Barometer: 30.14 inHg , 1020.7 hPa
Clouds: Clear
Visibility: 10 miles , 16 km
2017/09/25 14:52 KBML 251452Z AUTO 00000KT 10SM CLR 26/19 A3014 RMK AO2 SLP203 T02610189 58003